To NAV CANADA Home Page Login to a new session Search on AWWS site Feedback and Comments Disclaimer Vers la page française équivalente Tips FAQ What's new on the site To the Forecasts and Observations / NOTAM section To "File a Flight Plan" website Publications and other links Update of the User's profile FIC Telephone Numbers My Weather Data Folder Route Weather Data Regional Weather Data Local Weather Data To the Forecasts and Observations / NOTAM section
Request Generated 12/04/2016 at 22:23:12 UTC . Weather information available at that time is displayed.

METAR/TAF

CLYDE RIVER/NU    (show WxCam)

SPECI CYCY 042218Z AUTO 30013KT 5SM -SN FEW004 M17/M19 A2998 RMK
SLP156=
SPECI CYCY 042206Z AUTO 31012KT 7SM -SN FEW004 M18/M20 A2998 RMK
SLP158=
METAR CYCY 042200Z AUTO 31013KT 4SM -SN SCT004 M17/M19 A2998 RMK
SLP157=
SPECI CYCY 042147Z AUTO 31013KT 5SM -SN SCT004 M17/M19 A2998 RMK
SLP158=
SPECI CYCY 042144Z AUTO 31013KT 7SM -SN SCT004 M17/M19 A2998 RMK
SLP158=
SPECI CYCY 042141Z AUTO 31015KT 4SM -SN SCT004 M17/M19 A2998 RMK
SLP158=
SPECI CYCY 042123Z AUTO 31014KT 5SM -SN BKN004 M17/M19 A2999 RMK
SLP160=
SPECI CYCY 042121Z AUTO 31013KT 6SM -SN BKN006 M17/M19 A2999 RMK
SLP160=
METAR CYCY 042100Z AUTO 31012KT 5SM -SN BKN006 M17/M18 A2999 RMK
SLP160=
SPECI CYCY 042054Z AUTO 31013KT 7SM -SN BKN006 M16/M18 A2999 RMK
SLP161=
SPECI CYCY 042048Z AUTO 31014KT 3SM -SN BKN006 M16/M18 A2999 RMK
SLP161=
SPECI CYCY 042044Z AUTO 32015KT 2 1/4SM -SN OVC006 M15/M17 A3000 RMK
VIS VRB 1 1/4-3 SLP162=
SPECI CYCY 042004Z AUTO 32013KT 1 1/4SM -SN BKN006 OVC012 M14/M16
A3000 RMK SLP162=
METAR CYCY 042000Z AUTO 31014KT 1 1/2SM -SN BKN008 OVC014 M15/M16
A3000 RMK VIS VRB 3/4-2 1/4 SLP163=

TAF AMD CYCY 042214Z 0422/0507 32012G22KT P6SM SCT004 TEMPO 0422/0501
3SM -SN BKN004
FM050100 31015G25KT P6SM SCT012 TEMPO 0501/0507 5SM IC BR BKN012
RMK FCST BASED ON AUTO OBS. NXT FCST BY 050100Z=
Your time UTC time
Weather data provided by Environment Canada and NAV CANADA